< Typhoon 198418 1984 Season Typhoon 198420 >
Typhoon 198419 (ROY)
General InformationDetailed Track InformationTrack Information on Google MapsList of All Images || Disaster Info.ResourceGoogle EarthGE AnimationAtom FeedGeoJSON
Detalied Best Track Wind (Time Zone = UTC)
Year Month Day Hour Lat. Long. Wind (kt) Gust (kt) Direc. of Major Storm Axis Radius of Major Storm Axis (nm) Radius of Minor Storm Axis (nm) Direc. of Major Gale Axis Radius of Major Gale Axis (nm) Radius of Minor Gale Axis (nm) Image
1984 10 9 06 9.0 141.5 0 0 - - - - - - Image
1984 10 9 12 9.5 141.5 0 0 - - - - - - Image
1984 10 9 18 10.5 141.0 0 0 - - - - - - Image
1984 10 10 00 11.0 141.0 0 0 - - - - - - Image
1984 10 10 06 11.5 141.5 0 0 - - - - - - Image
1984 10 10 12 12.0 142.0 0 0 - - - - - - Image
1984 10 10 18 12.5 142.5 0 0 - - - - - - Image
1984 10 11 00 12.8 143.3 0 0 - - - - - - Image
1984 10 11 06 13.7 143.1 35 0 - - - symmetric 60 60 Image
1984 10 11 12 14.4 143.2 35 0 - - - symmetric 60 60 Image
1984 10 11 18 14.9 143.3 40 0 - - - symmetric 60 60 Image
1984 10 12 00 15.3 143.3 40 0 - - - symmetric 60 60 Image
1984 10 12 06 16.3 143.5 40 0 - - - symmetric 100 100 Image
1984 10 12 12 17.3 143.7 40 0 - - - symmetric 100 100 Image
1984 10 12 18 18.5 144.1 40 0 - - - symmetric 100 100 Image
1984 10 13 00 20.2 145.2 0 0 - - - - - - Image
1984 10 13 06 21.3 146.0 0 0 - - - - - - Image
1984 10 13 12 22.6 146.8 0 0 - - - - - - Image
1984 10 13 18 24.2 147.8 0 0 - - - - - - Image
1984 10 14 00 26.0 149.0 0 0 - - - - - - Image
Japan Meteorological Agency Best Track Data | Correction Date : 1992-10-21
< Typhoon 198418 1984 Season Typhoon 198420 >

Help